createdAt,value
2019-04-25T00:02:11.451Z,2.77
2019-04-25T00:04:42.368Z,2.60
2019-04-25T00:07:12.090Z,1.97
2019-04-25T00:09:49.576Z,2.70
2019-04-25T00:12:19.370Z,1.70
2019-04-25T00:14:51.348Z,2.70
2019-04-25T00:17:22.781Z,1.90
2019-04-25T00:19:52.844Z,2.47
2019-04-25T00:22:31.947Z,2.10
2019-04-25T00:25:21.793Z,2.80
2019-04-25T00:27:51.623Z,1.93
2019-04-25T00:30:22.698Z,2.00
2019-04-25T00:32:52.133Z,2.53
2019-04-25T00:35:21.734Z,1.80
2019-04-25T00:37:52.493Z,2.10
2019-04-25T00:40:22.469Z,2.77
2019-04-25T00:42:53.840Z,1.70
2019-04-25T00:45:23.286Z,2.30
2019-04-25T00:47:52.958Z,1.60
2019-04-25T00:50:22.587Z,1.67
2019-04-25T00:52:53.624Z,1.40
2019-04-25T00:55:28.520Z,1.87
2019-04-25T00:57:58.600Z,1.80
2019-04-25T01:00:50.042Z,1.70
2019-04-25T01:03:24.593Z,1.53
2019-04-25T01:05:54.600Z,1.70
2019-04-25T01:08:24.409Z,1.40
2019-04-25T01:10:54.245Z,1.60
2019-04-25T01:13:23.776Z,1.80
2019-04-25T01:15:53.748Z,1.40
2019-04-25T01:18:23.286Z,1.17
2019-04-25T01:20:54.437Z,1.30
2019-04-25T01:23:24.124Z,1.87
2019-04-25T01:25:54.465Z,1.63
2019-04-25T01:28:24.768Z,1.50
2019-04-25T01:30:55.092Z,1.70
2019-04-25T01:33:24.902Z,1.27
2019-04-25T01:36:19.683Z,1.00
2019-04-25T01:39:11.394Z,1.23
2019-04-25T01:41:49.186Z,1.20
2019-04-25T01:44:24.043Z,1.40
2019-04-25T01:46:54.482Z,1.40
2019-04-25T01:49:24.572Z,1.57
2019-04-25T01:51:54.441Z,1.73
2019-04-25T01:54:25.231Z,1.07
2019-04-25T01:56:55.280Z,1.57
2019-04-25T01:59:25.702Z,1.60
2019-04-25T02:01:55.441Z,1.23
2019-04-25T02:04:24.862Z,1.90
2019-04-25T02:06:54.890Z,1.60
2019-04-25T02:09:25.331Z,1.83
2019-04-25T02:12:04.791Z,1.47
2019-04-25T02:14:34.598Z,1.50
2019-04-25T02:17:04.551Z,1.63
2019-04-25T02:19:35.701Z,1.43
2019-04-25T02:22:05.762Z,1.30
2019-04-25T02:24:35.166Z,1.27
2019-04-25T02:27:04.759Z,1.43
2019-04-25T02:29:34.321Z,1.63
2019-04-25T02:32:08.737Z,1.10
2019-04-25T02:34:35.030Z,1.10
2019-04-25T02:37:09.380Z,1.33
2019-04-25T02:39:37.465Z,1.20
2019-04-25T02:42:08.589Z,1.63
2019-04-25T02:44:41.525Z,1.30
2019-04-25T02:47:28.974Z,1.70
2019-04-25T02:50:17.731Z,1.13
2019-04-25T02:52:51.307Z,1.50
2019-04-25T02:55:30.741Z,2.27
2019-04-25T02:57:54.125Z,1.30
2019-04-25T03:00:27.960Z,1.77
2019-04-25T03:02:59.081Z,1.20
2019-04-25T03:05:28.665Z,1.20
2019-04-25T03:07:59.639Z,1.07
2019-04-25T03:10:29.218Z,1.10
2019-04-25T03:13:00.251Z,1.50
2019-04-25T03:15:30.203Z,1.53
2019-04-25T03:18:00.175Z,1.77
2019-04-25T03:20:51.023Z,1.00
2019-04-25T03:23:46.353Z,1.10
2019-04-25T03:26:15.976Z,1.60
2019-04-25T03:28:45.313Z,1.60
2019-04-25T03:31:21.898Z,1.00
2019-04-25T03:33:46.370Z,1.07
2019-04-25T03:36:17.010Z,1.20
2019-04-25T03:38:46.668Z,1.40
2019-04-25T03:41:16.563Z,1.03
2019-04-25T03:43:46.205Z,1.30
2019-04-25T03:46:15.643Z,1.20
2019-04-25T03:48:45.132Z,1.50
2019-04-25T03:51:15.650Z,1.50
2019-04-25T03:53:45.216Z,1.07
2019-04-25T03:56:14.751Z,1.27
2019-04-25T03:58:44.254Z,1.50
2019-04-25T04:01:15.529Z,1.23
2019-04-25T04:03:45.159Z,1.20
2019-04-25T04:06:15.620Z,1.00
2019-04-25T04:08:45.274Z,1.50
2019-04-25T04:11:15.677Z,1.40
2019-04-25T04:13:45.413Z,1.03
2019-04-25T04:16:17.414Z,1.00
2019-04-25T04:18:48.743Z,1.03
2019-04-25T04:21:48.947Z,0.90
2019-04-25T04:24:37.909Z,0.90
2019-04-25T04:27:09.222Z,1.00
2019-04-25T04:29:39.655Z,1.10
2019-04-25T04:32:09.125Z,1.17
2019-04-25T04:34:38.569Z,1.43
2019-04-25T04:37:08.988Z,1.00
2019-04-25T04:39:38.850Z,1.23
2019-04-25T04:42:09.564Z,2.20
2019-04-25T04:44:38.993Z,1.43
2019-04-25T04:47:08.595Z,1.43
2019-04-25T04:49:38.203Z,1.20
2019-04-25T04:52:08.317Z,1.60
2019-04-25T04:54:38.765Z,1.17
2019-04-25T04:57:18.441Z,1.23
2019-04-25T04:59:39.583Z,1.40
2019-04-25T05:02:40.406Z,1.00
2019-04-25T05:05:21.229Z,1.63
2019-04-25T05:07:59.521Z,1.67
2019-04-25T05:10:29.001Z,1.40
2019-04-25T05:12:58.707Z,1.83
2019-04-25T05:15:28.115Z,2.00
2019-04-25T05:17:57.798Z,1.20
2019-04-25T05:20:27.163Z,1.73
2019-04-25T05:22:56.586Z,1.43
2019-04-25T05:25:26.706Z,1.43
2019-04-25T05:28:02.452Z,0.93
2019-04-25T05:30:39.299Z,1.20
2019-04-25T05:33:08.757Z,1.43
2019-04-25T05:35:38.212Z,1.07
2019-04-25T05:38:07.896Z,1.20
2019-04-25T05:40:49.704Z,1.40
2019-04-25T05:43:19.077Z,1.30
2019-04-25T05:45:48.476Z,2.00
2019-04-25T05:48:17.917Z,1.43
2019-04-25T05:50:47.324Z,1.20
2019-04-25T05:53:17.680Z,1.23
2019-04-25T05:55:47.250Z,1.80
2019-04-25T05:58:16.949Z,1.43
2019-04-25T06:00:46.919Z,1.40
2019-04-25T06:03:17.258Z,1.67
2019-04-25T06:05:46.749Z,1.10
2019-04-25T06:08:17.721Z,1.00
2019-04-25T06:10:59.702Z,1.40
2019-04-25T06:13:43.405Z,1.33
2019-04-25T06:16:20.925Z,1.20
2019-04-25T06:19:14.191Z,1.63
2019-04-25T06:21:40.341Z,1.30
2019-04-25T06:24:25.801Z,1.30
2019-04-25T06:27:24.318Z,1.30
2019-04-25T06:30:20.495Z,1.37
2019-04-25T06:32:50.052Z,1.17
2019-04-25T06:35:20.332Z,1.17
2019-04-25T06:37:50.582Z,1.50
2019-04-25T06:40:20.655Z,1.27
2019-04-25T06:42:50.201Z,1.23
2019-04-25T06:45:44.040Z,0.80
2019-04-25T06:48:45.566Z,1.00
2019-04-25T06:51:15.236Z,1.13
2019-04-25T06:53:44.658Z,1.37
2019-04-25T06:56:14.340Z,1.17
2019-04-25T06:58:43.996Z,1.37
2019-04-25T07:01:13.693Z,0.80
2019-04-25T07:03:44.193Z,1.10
2019-04-25T07:06:14.822Z,0.83
2019-04-25T07:08:44.771Z,1.33
2019-04-25T07:11:14.404Z,1.20
2019-04-25T07:13:43.983Z,1.00
2019-04-25T07:16:13.535Z,2.13
2019-04-25T07:18:43.590Z,1.17
2019-04-25T07:21:14.212Z,1.60
2019-04-25T07:23:46.282Z,1.20
2019-04-25T07:26:25.034Z,1.10
2019-04-25T07:29:08.624Z,1.33
2019-04-25T07:31:58.304Z,1.60
2019-04-25T07:34:27.880Z,1.10
2019-04-25T07:36:57.472Z,1.47
2019-04-25T07:39:27.494Z,1.87
2019-04-25T07:41:57.122Z,1.10
2019-04-25T07:44:38.072Z,1.03
2019-04-25T07:46:57.607Z,1.10
2019-04-25T07:49:28.377Z,0.77
2019-04-25T07:51:58.029Z,1.17
2019-04-25T07:54:27.870Z,1.23
2019-04-25T07:56:58.449Z,1.10
2019-04-25T07:59:27.997Z,1.20
2019-04-25T08:01:58.274Z,0.60
2019-04-25T08:04:27.739Z,1.10
2019-04-25T08:06:57.257Z,0.80
2019-04-25T08:09:27.364Z,0.70
2019-04-25T08:11:57.593Z,1.10
2019-04-25T08:14:37.290Z,0.90
2019-04-25T08:17:07.261Z,0.97
2019-04-25T08:19:37.188Z,0.87
2019-04-25T08:22:06.674Z,0.97
2019-04-25T08:24:37.240Z,1.10
2019-04-25T08:27:07.013Z,1.30
2019-04-25T08:29:39.241Z,1.27
2019-04-25T08:32:08.008Z,1.70
2019-04-25T08:34:37.424Z,1.00
2019-04-25T08:37:17.333Z,0.90
2019-04-25T08:39:38.759Z,0.90
2019-04-25T08:42:15.655Z,1.20
2019-04-25T08:44:45.262Z,1.00
2019-04-25T08:47:14.699Z,1.10
2019-04-25T08:49:56.493Z,1.57
2019-04-25T08:52:25.872Z,1.17
2019-04-25T08:55:04.304Z,0.77
2019-04-25T08:57:51.775Z,1.27
2019-04-25T09:00:38.750Z,1.00
2019-04-25T09:03:11.200Z,1.03
2019-04-25T09:05:45.945Z,1.10
2019-04-25T09:08:14.893Z,1.20
2019-04-25T09:10:44.945Z,1.13
2019-04-25T09:13:14.589Z,0.70
2019-04-25T09:15:45.599Z,1.17
2019-04-25T09:18:16.100Z,1.10
2019-04-25T09:20:46.670Z,1.00
2019-04-25T09:23:16.248Z,1.40
2019-04-25T09:25:46.234Z,1.00
2019-04-25T09:28:15.799Z,1.33
2019-04-25T09:30:45.909Z,1.10
2019-04-25T09:33:15.529Z,1.20
2019-04-25T09:35:45.975Z,0.90
2019-04-25T09:38:15.588Z,0.90
2019-04-25T09:40:45.682Z,1.20
2019-04-25T09:43:16.085Z,0.90
2019-04-25T09:46:04.501Z,1.07
2019-04-25T09:48:54.226Z,1.80
2019-04-25T09:51:27.925Z,0.87
2019-04-25T09:54:03.571Z,0.93
2019-04-25T09:56:38.284Z,1.30
2019-04-25T09:59:26.759Z,1.43
2019-04-25T10:01:49.716Z,1.13
2019-04-25T10:04:19.193Z,1.03
2019-04-25T10:06:48.670Z,1.17
2019-04-25T10:09:19.429Z,1.43
2019-04-25T10:11:48.878Z,0.80
2019-04-25T10:15:04.307Z,1.30
2019-04-25T10:17:33.921Z,0.80
2019-04-25T10:20:03.325Z,1.23
2019-04-25T10:22:33.916Z,0.80
2019-04-25T10:25:03.737Z,1.07
2019-04-25T10:27:33.134Z,1.10
2019-04-25T10:30:16.387Z,1.20
2019-04-25T10:32:33.641Z,1.20
2019-04-25T10:35:03.081Z,1.33
2019-04-25T10:37:33.901Z,0.80
2019-04-25T10:40:04.365Z,1.17
2019-04-25T10:42:34.310Z,1.03
2019-04-25T10:45:04.203Z,1.20
2019-04-25T10:47:35.183Z,1.10
2019-04-25T10:50:05.557Z,1.33
2019-04-25T10:52:34.962Z,0.73
2019-04-25T10:55:04.674Z,1.17
2019-04-25T10:57:34.175Z,1.10
2019-04-25T11:00:09.043Z,0.80
2019-04-25T11:02:36.278Z,0.90
2019-04-25T11:05:11.016Z,0.70
2019-04-25T11:07:40.663Z,2.07
2019-04-25T11:10:10.209Z,1.27
2019-04-25T11:12:41.493Z,0.70
2019-04-25T11:15:11.375Z,0.90
2019-04-25T11:17:40.754Z,0.80
2019-04-25T11:20:23.654Z,0.70
2019-04-25T11:22:53.514Z,0.60
2019-04-25T11:25:24.060Z,0.73
2019-04-25T11:27:55.188Z,0.70
2019-04-25T11:30:26.529Z,0.73
2019-04-25T11:32:56.157Z,0.77
2019-04-25T11:35:25.576Z,1.27
2019-04-25T11:37:56.911Z,0.87
2019-04-25T11:40:34.652Z,0.80
2019-04-25T11:43:04.329Z,0.87
2019-04-25T11:45:34.736Z,0.53
2019-04-25T11:48:05.336Z,0.73
2019-04-25T11:50:36.995Z,1.13
2019-04-25T11:53:06.238Z,0.80
2019-04-25T11:55:36.073Z,0.87
2019-04-25T11:58:05.459Z,0.87
2019-04-25T12:00:35.266Z,1.00
2019-04-25T12:03:04.786Z,0.70
2019-04-25T12:05:34.397Z,0.70
2019-04-25T12:08:05.866Z,0.80
2019-04-25T12:10:36.272Z,0.83
2019-04-25T12:13:06.743Z,0.63
2019-04-25T12:15:36.210Z,0.83
2019-04-25T12:18:05.651Z,1.00
2019-04-25T12:20:35.094Z,1.00
2019-04-25T12:23:10.227Z,0.80
2019-04-25T12:25:35.617Z,0.90
2019-04-25T12:28:05.698Z,0.97
2019-04-25T12:30:40.024Z,0.80
2019-04-25T12:33:18.283Z,0.80
2019-04-25T12:35:38.149Z,0.97
2019-04-25T12:38:07.574Z,0.90
2019-04-25T12:40:37.503Z,1.03
2019-04-25T12:43:06.876Z,1.10
2019-04-25T12:45:45.719Z,0.60
2019-04-25T12:48:16.156Z,0.93
2019-04-25T12:50:46.354Z,0.70
2019-04-25T12:53:15.833Z,0.80
2019-04-25T12:55:45.253Z,1.00
2019-04-25T12:58:14.645Z,0.90
2019-04-25T13:00:49.566Z,1.00
2019-04-25T13:03:15.201Z,0.80
2019-04-25T13:05:44.600Z,0.90
2019-04-25T13:08:14.421Z,0.97
2019-04-25T13:10:44.467Z,1.00
2019-04-25T13:13:16.037Z,0.80
2019-04-25T13:15:46.078Z,0.93
2019-04-25T13:18:15.642Z,0.87
2019-04-25T13:20:45.033Z,0.70
2019-04-25T13:23:14.897Z,0.70
2019-04-25T13:25:44.521Z,0.63
2019-04-25T13:28:24.064Z,0.60
2019-04-25T13:31:10.375Z,0.77
2019-04-25T13:34:01.790Z,1.00
2019-04-25T13:36:32.921Z,0.70
2019-04-25T13:39:07.212Z,0.70
2019-04-25T13:41:36.591Z,0.83
2019-04-25T13:44:07.090Z,0.73
2019-04-25T13:46:36.565Z,0.77
2019-04-25T13:49:06.148Z,0.70
2019-04-25T13:51:35.585Z,0.90
2019-04-25T13:54:05.185Z,0.90
2019-04-25T13:56:40.165Z,1.00
2019-04-25T13:59:06.367Z,1.27
2019-04-25T14:01:35.821Z,0.83
2019-04-25T14:04:07.043Z,0.93
2019-04-25T14:06:36.491Z,0.67
2019-04-25T14:09:13.324Z,0.70
2019-04-25T14:11:44.124Z,0.90
2019-04-25T14:14:13.835Z,0.73
2019-04-25T14:16:51.111Z,0.77
2019-04-25T14:19:39.514Z,0.60
2019-04-25T14:22:08.999Z,0.70
2019-04-25T14:24:38.402Z,0.60
2019-04-25T14:27:09.352Z,0.57
2019-04-25T14:29:38.772Z,0.70
2019-04-25T14:32:09.732Z,1.10
2019-04-25T14:34:39.196Z,0.50
2019-04-25T14:37:08.574Z,1.13
2019-04-25T14:39:37.970Z,0.87
2019-04-25T14:42:07.383Z,0.57
2019-04-25T14:44:37.478Z,0.90
2019-04-25T14:47:06.922Z,0.80
2019-04-25T14:49:36.359Z,0.90
2019-04-25T14:52:05.755Z,0.93
2019-04-25T14:54:41.668Z,0.70
2019-04-25T14:57:24.293Z,0.60
2019-04-25T14:59:53.902Z,1.20
2019-04-25T15:02:25.724Z,0.80
2019-04-25T15:04:55.191Z,1.00
2019-04-25T15:07:24.568Z,0.70
2019-04-25T15:09:54.038Z,0.57
2019-04-25T15:12:24.709Z,0.60
2019-04-25T15:14:54.337Z,0.77
2019-04-25T15:17:23.799Z,0.97
2019-04-25T15:19:53.236Z,0.90
2019-04-25T15:22:23.190Z,0.70
2019-04-25T15:24:53.664Z,0.63
2019-04-25T15:27:24.102Z,0.60
2019-04-25T15:29:54.190Z,0.67
2019-04-25T15:32:26.200Z,1.00
2019-04-25T15:34:58.266Z,0.87
2019-04-25T15:37:33.094Z,0.80
2019-04-25T15:40:25.252Z,1.10
2019-04-25T15:43:03.655Z,1.50
2019-04-25T15:45:50.107Z,0.90
2019-04-25T15:48:19.957Z,1.10
2019-04-25T15:50:49.848Z,0.93
2019-04-25T15:53:19.393Z,0.93
2019-04-25T15:55:48.786Z,0.90
2019-04-25T15:58:18.286Z,0.90
2019-04-25T16:00:47.725Z,1.43
2019-04-25T16:03:17.108Z,0.90
2019-04-25T16:05:46.497Z,0.70
2019-04-25T16:08:15.908Z,1.03
2019-04-25T16:10:45.311Z,1.17
2019-04-25T16:13:14.796Z,0.70
2019-04-25T16:15:44.276Z,1.00
2019-04-25T16:18:14.020Z,1.30
2019-04-25T16:20:43.426Z,1.00
2019-04-25T16:23:12.812Z,1.00
2019-04-25T16:25:42.622Z,1.57
2019-04-25T16:28:12.257Z,1.10
2019-04-25T16:30:42.060Z,1.20
2019-04-25T16:33:11.461Z,1.00
2019-04-25T16:35:40.872Z,1.40
2019-04-25T16:38:10.457Z,1.20
2019-04-25T16:40:40.191Z,1.87
2019-04-25T16:43:12.243Z,1.27
2019-04-25T16:45:41.679Z,1.27
2019-04-25T16:48:11.057Z,1.33
2019-04-25T16:50:40.537Z,1.17
2019-04-25T16:53:09.922Z,1.40
2019-04-25T16:55:39.403Z,1.53
2019-04-25T16:58:08.976Z,2.63
2019-04-25T17:00:46.040Z,1.70
2019-04-25T17:03:16.075Z,1.40
2019-04-25T17:05:45.547Z,1.50
2019-04-25T17:08:15.231Z,1.37
2019-04-25T17:10:44.689Z,1.30
2019-04-25T17:13:14.334Z,1.30
2019-04-25T17:16:11.607Z,1.10
2019-04-25T17:19:05.858Z,1.20
2019-04-25T17:21:35.276Z,1.00
2019-04-25T17:24:05.221Z,1.40
2019-04-25T17:26:34.943Z,1.33
2019-04-25T17:29:07.722Z,1.43
2019-04-25T17:31:56.050Z,1.10
2019-04-25T17:34:32.657Z,1.03
2019-04-25T17:37:15.645Z,1.03
2019-04-25T17:39:47.928Z,1.23
2019-04-25T17:42:17.300Z,1.20
2019-04-25T17:44:46.698Z,1.13
2019-04-25T17:47:16.113Z,1.30
2019-04-25T17:49:45.590Z,1.40
2019-04-25T17:52:15.007Z,1.37
2019-04-25T17:54:44.469Z,1.00
2019-04-25T17:57:13.821Z,1.20
2019-04-25T17:59:43.480Z,1.17
2019-04-25T18:02:13.181Z,1.13
2019-04-25T18:04:42.603Z,1.07
2019-04-25T18:07:12.155Z,1.47
2019-04-25T18:09:41.626Z,1.30
2019-04-25T18:12:11.004Z,1.20
2019-04-25T18:14:40.808Z,1.20
2019-04-25T18:17:10.240Z,1.10
2019-04-25T18:19:44.787Z,1.23
2019-04-25T18:22:20.993Z,0.77
2019-04-25T18:25:24.415Z,0.90
2019-04-25T18:28:07.069Z,1.03
2019-04-25T18:30:37.014Z,1.20
2019-04-25T18:33:15.127Z,0.90
2019-04-25T18:35:45.866Z,1.47
2019-04-25T18:38:40.202Z,0.90
2019-04-25T18:41:27.296Z,0.93
2019-04-25T18:43:58.469Z,1.00
2019-04-25T18:46:31.166Z,0.70
2019-04-25T18:49:00.927Z,0.70
2019-04-25T18:51:30.486Z,0.80
2019-04-25T18:54:15.294Z,0.90
2019-04-25T18:56:54.561Z,1.00
2019-04-25T18:59:42.737Z,1.20
2019-04-25T19:02:43.955Z,1.00
2019-04-25T19:05:32.353Z,1.03
2019-04-25T19:08:01.841Z,1.33
2019-04-25T19:10:31.317Z,1.07
2019-04-25T19:13:12.029Z,1.20
2019-04-25T19:15:31.867Z,1.30
2019-04-25T19:18:01.687Z,1.13
2019-04-25T19:20:31.749Z,0.90
2019-04-25T19:23:01.167Z,1.30
2019-04-25T19:25:30.649Z,1.33
2019-04-25T19:28:00.009Z,2.20
2019-04-25T19:30:29.787Z,1.03
2019-04-25T19:32:59.187Z,1.40
2019-04-25T19:35:28.582Z,1.63
2019-04-25T19:37:58.990Z,1.50
2019-04-25T19:40:48.132Z,2.00
2019-04-25T19:43:37.813Z,1.53
2019-04-25T19:46:07.223Z,1.87
2019-04-25T19:48:36.674Z,1.63
2019-04-25T19:51:06.144Z,2.40
2019-04-25T19:53:35.544Z,1.70
2019-04-25T19:56:05.043Z,1.73
2019-04-25T19:58:34.403Z,1.97
2019-04-25T20:01:03.825Z,2.17
2019-04-25T20:03:51.839Z,1.50
2019-04-25T20:06:32.608Z,2.03
2019-04-25T20:09:23.726Z,1.90
2019-04-25T20:11:53.634Z,2.70
2019-04-25T20:14:23.105Z,1.97
2019-04-25T20:16:52.489Z,1.97
2019-04-25T20:19:22.422Z,2.40
2019-04-25T20:21:52.164Z,1.77
2019-04-25T20:24:21.596Z,1.90
2019-04-25T20:26:52.507Z,2.10
2019-04-25T20:29:22.087Z,1.93
2019-04-25T20:31:51.497Z,2.47
2019-04-25T20:34:20.894Z,1.90
2019-04-25T20:36:50.307Z,2.00
2019-04-25T20:39:19.729Z,2.10
2019-04-25T20:41:49.754Z,2.47
2019-04-25T20:44:19.268Z,2.60
2019-04-25T20:46:48.705Z,2.70
2019-04-25T20:49:18.088Z,2.30
2019-04-25T20:51:48.442Z,2.53
2019-04-25T20:54:18.101Z,2.77
2019-04-25T20:56:49.111Z,2.37
2019-04-25T20:59:18.779Z,2.30
2019-04-25T21:01:48.270Z,2.00
2019-04-25T21:04:35.880Z,2.20
2019-04-25T21:07:05.288Z,2.10
2019-04-25T21:09:34.757Z,2.70
2019-04-25T21:12:04.476Z,2.73
2019-04-25T21:14:51.493Z,2.10
2019-04-25T21:17:45.846Z,2.13
2019-04-25T21:20:15.366Z,2.00
2019-04-25T21:22:44.737Z,2.40
2019-04-25T21:25:14.202Z,2.00
2019-04-25T21:27:43.662Z,2.50
2019-04-25T21:30:13.427Z,2.23
2019-04-25T21:32:55.702Z,2.27
2019-04-25T21:35:25.453Z,2.10
2019-04-25T21:37:55.425Z,2.63
2019-04-25T21:40:34.418Z,2.27
2019-04-25T21:43:10.385Z,2.53
2019-04-25T21:45:40.161Z,2.10
2019-04-25T21:48:09.936Z,2.37
2019-04-25T21:50:39.734Z,2.20
2019-04-25T21:53:09.489Z,2.63
2019-04-25T21:55:39.294Z,2.83
2019-04-25T21:58:08.953Z,2.83
2019-04-25T22:00:58.081Z,2.67
2019-04-25T22:03:27.754Z,3.10
2019-04-25T22:05:58.602Z,2.40
2019-04-25T22:08:28.185Z,2.60
2019-04-25T22:10:57.641Z,3.00
2019-04-25T22:13:27.174Z,2.27
2019-04-25T22:15:57.266Z,3.00
2019-04-25T22:18:27.100Z,4.40
2019-04-25T22:20:56.901Z,3.00
2019-04-25T22:23:26.634Z,2.60
2019-04-25T22:25:56.465Z,2.60
2019-04-25T22:28:26.890Z,2.53
2019-04-25T22:30:59.211Z,2.83
2019-04-25T22:33:57.161Z,2.60
2019-04-25T22:36:26.999Z,2.30
2019-04-25T22:39:12.323Z,2.57
2019-04-25T22:41:48.289Z,3.30
2019-04-25T22:44:19.270Z,2.53
2019-04-25T22:46:49.144Z,2.67
2019-04-25T22:49:18.613Z,2.53
2019-04-25T22:51:48.435Z,2.60
2019-04-25T22:54:18.606Z,2.73
2019-04-25T22:56:48.198Z,4.37
2019-04-25T22:59:18.073Z,2.47
2019-04-25T23:02:05.479Z,2.80
2019-04-25T23:04:43.735Z,3.10
2019-04-25T23:07:13.202Z,2.60
2019-04-25T23:09:42.571Z,3.77
2019-04-25T23:12:12.694Z,2.90
2019-04-25T23:14:42.498Z,2.23
2019-04-25T23:17:11.898Z,3.07
2019-04-25T23:19:41.293Z,2.53
2019-04-25T23:22:11.471Z,2.53
2019-04-25T23:24:46.071Z,2.67
2019-04-25T23:27:31.862Z,2.37
2019-04-25T23:30:01.309Z,2.57
2019-04-25T23:32:30.908Z,2.57
2019-04-25T23:35:00.264Z,2.73
2019-04-25T23:37:29.756Z,3.73
2019-04-25T23:39:59.249Z,3.03
2019-04-25T23:42:28.614Z,2.80
2019-04-25T23:44:58.274Z,2.63
2019-04-25T23:47:27.689Z,3.03
2019-04-25T23:49:57.448Z,3.50
2019-04-25T23:52:26.885Z,2.73
2019-04-25T23:54:56.367Z,2.87
2019-04-25T23:57:26.175Z,3.10
2019-04-25T23:59:55.615Z,3.13
